createdAt,value
2023-02-11T00:02:10.102Z,59.37
2023-02-11T00:05:11.705Z,58.81
2023-02-11T00:08:16.926Z,58.97
2023-02-11T00:11:21.704Z,58.82
2023-02-11T00:14:23.164Z,58.82
2023-02-11T00:17:24.671Z,58.71
2023-02-11T00:20:26.146Z,58.59
2023-02-11T00:23:27.603Z,58.59
2023-02-11T00:26:32.659Z,58.68
2023-02-11T00:29:34.236Z,58.69
2023-02-11T00:32:40.892Z,58.65
2023-02-11T00:35:42.345Z,58.77
2023-02-11T00:38:45.313Z,58.54
2023-02-11T00:41:46.808Z,58.61
2023-02-11T00:44:48.283Z,58.46
2023-02-11T00:47:51.790Z,58.47
2023-02-11T00:50:53.264Z,58.40
2023-02-11T00:53:55.349Z,58.35
2023-02-11T00:56:57.804Z,58.21
2023-02-11T00:59:59.476Z,58.37
2023-02-11T01:03:00.975Z,58.26
2023-02-11T01:06:02.712Z,58.27
2023-02-11T01:09:04.426Z,58.27
2023-02-11T01:12:06.249Z,58.18
2023-02-11T01:15:09.109Z,58.20
2023-02-11T01:18:10.559Z,58.09
2023-02-11T01:21:12.342Z,58.15
2023-02-11T01:24:13.807Z,58.16
2023-02-11T01:27:15.339Z,58.21
2023-02-11T01:30:16.874Z,58.14
2023-02-11T01:33:18.810Z,58.17
2023-02-11T01:36:20.385Z,58.24
2023-02-11T01:39:21.882Z,58.32
2023-02-11T01:42:24.277Z,58.18
2023-02-11T01:45:55.325Z,58.27
2023-02-11T01:49:12.395Z,58.32
2023-02-11T01:52:25.961Z,58.39
2023-02-11T01:55:46.185Z,58.40
2023-02-11T01:58:51.503Z,58.44
2023-02-11T02:02:03.898Z,58.49
2023-02-11T02:05:20.347Z,58.48
2023-02-11T02:08:43.253Z,58.52
2023-02-11T02:11:44.704Z,58.46
2023-02-11T02:14:46.215Z,58.50
2023-02-11T02:17:58.584Z,58.41
2023-02-11T02:21:09.139Z,58.45
2023-02-11T02:24:41.583Z,58.41
2023-02-11T02:28:03.294Z,58.18
2023-02-11T02:31:19.233Z,58.48
2023-02-11T02:34:37.719Z,58.34
2023-02-11T02:38:01.444Z,58.50
2023-02-11T02:41:29.666Z,58.41
2023-02-11T02:44:31.839Z,58.55
2023-02-11T02:47:33.307Z,58.45
2023-02-11T02:50:37.249Z,58.49
2023-02-11T02:53:51.013Z,58.52
2023-02-11T02:57:30.392Z,58.52
2023-02-11T03:00:51.935Z,58.55
2023-02-11T03:04:17.732Z,58.50
2023-02-11T03:07:35.120Z,58.54
2023-02-11T03:10:42.980Z,58.52
2023-02-11T03:13:45.992Z,58.45
2023-02-11T03:16:49.163Z,58.39
2023-02-11T03:19:51.711Z,58.47
2023-02-11T03:22:58.054Z,58.37
2023-02-11T03:26:04.958Z,58.38
2023-02-11T03:29:07.455Z,58.32
2023-02-11T03:32:47.435Z,58.37
2023-02-11T03:35:55.918Z,58.48
2023-02-11T03:39:00.230Z,58.50
2023-02-11T03:42:04.051Z,58.40
2023-02-11T03:45:10.642Z,58.54
2023-02-11T03:48:16.495Z,58.49
2023-02-11T03:51:20.601Z,58.51
2023-02-11T03:54:29.472Z,58.58
2023-02-11T03:57:31.101Z,58.75
2023-02-11T04:00:35.032Z,58.72
2023-02-11T04:03:36.670Z,58.74
2023-02-11T04:06:38.579Z,58.67
2023-02-11T04:09:40.066Z,58.70
2023-02-11T04:12:41.529Z,58.75
2023-02-11T04:15:43.118Z,58.53
2023-02-11T04:18:44.652Z,58.79
2023-02-11T04:21:47.033Z,58.71
2023-02-11T04:24:48.533Z,58.71
2023-02-11T04:27:49.996Z,58.72
2023-02-11T04:30:51.609Z,58.76
2023-02-11T04:33:53.146Z,58.74
2023-02-11T04:36:54.704Z,58.67
2023-02-11T04:39:56.226Z,58.77
2023-02-11T04:42:57.701Z,58.77
2023-02-11T04:45:59.300Z,59.21
2023-02-11T04:49:01.033Z,58.85
2023-02-11T04:52:02.497Z,58.81
2023-02-11T04:55:04.394Z,58.91
2023-02-11T04:58:05.955Z,58.54
2023-02-11T05:01:13.385Z,58.80
2023-02-11T05:04:15.183Z,58.88
2023-02-11T05:07:16.748Z,58.80
2023-02-11T05:10:18.294Z,58.75
2023-02-11T05:13:19.871Z,58.93
2023-02-11T05:16:21.593Z,59.09
2023-02-11T05:19:23.137Z,59.17
2023-02-11T05:22:24.628Z,58.99
2023-02-11T05:25:26.107Z,59.01
2023-02-11T05:28:27.887Z,59.00
2023-02-11T05:31:29.418Z,59.12
2023-02-11T05:34:30.943Z,59.04
2023-02-11T05:37:32.445Z,58.93
2023-02-11T05:40:33.968Z,58.96
2023-02-11T05:43:36.511Z,58.94
2023-02-11T05:46:38.139Z,59.00
2023-02-11T05:49:39.651Z,59.00
2023-02-11T05:52:41.165Z,59.01
2023-02-11T05:55:42.861Z,59.12
2023-02-11T05:58:44.328Z,59.18
2023-02-11T06:01:45.922Z,59.40
2023-02-11T06:04:47.353Z,59.01
2023-02-11T06:07:48.830Z,59.30
2023-02-11T06:10:50.343Z,59.19
2023-02-11T06:13:51.859Z,59.28
2023-02-11T06:16:53.334Z,59.18
2023-02-11T06:19:54.846Z,59.35
2023-02-11T06:22:56.313Z,59.36
2023-02-11T06:26:02.044Z,59.28
2023-02-11T06:29:03.585Z,59.25
2023-02-11T06:32:05.259Z,59.22
2023-02-11T06:35:09.424Z,59.23
2023-02-11T06:38:12.203Z,59.22
2023-02-11T06:41:16.350Z,59.17
2023-02-11T06:44:17.873Z,59.32
2023-02-11T06:47:19.357Z,59.11
2023-02-11T06:50:20.919Z,59.22
2023-02-11T06:53:22.402Z,59.13
2023-02-11T06:56:27.196Z,59.08
2023-02-11T06:59:28.720Z,58.83
2023-02-11T07:02:30.335Z,58.96
2023-02-11T07:05:34.091Z,58.95
2023-02-11T07:08:37.201Z,58.97
2023-02-11T07:11:39.155Z,59.05
2023-02-11T07:14:40.618Z,59.10
2023-02-11T07:17:42.143Z,59.05
2023-02-11T07:20:43.994Z,58.98
2023-02-11T07:23:45.504Z,58.90
2023-02-11T07:26:46.977Z,58.88
2023-02-11T07:29:48.671Z,58.96
2023-02-11T07:32:50.194Z,58.98
2023-02-11T07:35:52.052Z,58.92
2023-02-11T07:38:53.804Z,59.04
2023-02-11T07:41:56.674Z,59.05
2023-02-11T07:44:58.609Z,59.11
2023-02-11T07:48:00.082Z,59.14
2023-02-11T07:51:15.525Z,59.05
2023-02-11T07:54:17.811Z,59.17
2023-02-11T07:57:19.290Z,59.12
2023-02-11T08:00:21.242Z,59.21
2023-02-11T08:03:22.931Z,59.17
2023-02-11T08:06:27.730Z,59.25
2023-02-11T08:09:29.210Z,59.30
2023-02-11T08:12:30.682Z,59.35
2023-02-11T08:15:32.179Z,59.50
2023-02-11T08:18:34.652Z,59.47
2023-02-11T08:21:36.222Z,59.63
2023-02-11T08:24:37.755Z,59.41
2023-02-11T08:27:39.238Z,59.76
2023-02-11T08:30:40.772Z,59.84
2023-02-11T08:33:42.423Z,59.98
2023-02-11T08:36:44.874Z,60.01
2023-02-11T08:39:47.312Z,59.96
2023-02-11T08:42:48.889Z,59.96
2023-02-11T08:45:50.679Z,59.94
2023-02-11T08:48:53.149Z,59.84
2023-02-11T08:51:56.154Z,59.85
2023-02-11T08:54:57.629Z,59.83
2023-02-11T08:57:59.181Z,59.69
2023-02-11T09:01:00.825Z,59.68
2023-02-11T09:04:02.471Z,59.64
2023-02-11T09:07:04.634Z,59.58
2023-02-11T09:10:06.822Z,59.43
2023-02-11T09:13:09.045Z,59.40
2023-02-11T09:16:18.394Z,59.48
2023-02-11T09:19:20.857Z,59.34
2023-02-11T09:22:22.313Z,59.31
2023-02-11T09:25:23.890Z,59.36
2023-02-11T09:28:25.430Z,59.59
2023-02-11T09:31:29.176Z,59.91
2023-02-11T09:34:31.486Z,60.13
2023-02-11T09:37:34.627Z,60.36
2023-02-11T09:40:42.895Z,60.59
2023-02-11T09:43:46.652Z,60.72
2023-02-11T09:46:55.880Z,61.00
2023-02-11T09:50:02.518Z,60.98
2023-02-11T09:53:34.299Z,60.98
2023-02-11T09:56:36.579Z,61.14
2023-02-11T09:59:38.070Z,61.16
2023-02-11T10:02:48.690Z,61.05
2023-02-11T10:05:59.321Z,61.23
2023-02-11T10:09:28.556Z,61.18
2023-02-11T10:12:39.142Z,61.23
2023-02-11T10:16:05.272Z,61.27
2023-02-11T10:19:15.659Z,61.37
2023-02-11T10:22:25.550Z,61.31
2023-02-11T10:25:45.516Z,61.23
2023-02-11T10:28:52.810Z,61.13
2023-02-11T10:31:57.188Z,61.15
2023-02-11T10:35:04.189Z,61.09
2023-02-11T10:38:05.728Z,60.81
2023-02-11T10:41:24.188Z,60.85
2023-02-11T10:44:31.812Z,60.67
2023-02-11T10:47:37.495Z,60.62
2023-02-11T10:50:39.031Z,60.58
2023-02-11T10:53:40.868Z,60.46
2023-02-11T10:56:49.946Z,60.49
2023-02-11T10:59:58.404Z,60.39
2023-02-11T11:03:01.264Z,60.46
2023-02-11T11:06:05.367Z,60.47
2023-02-11T11:09:06.910Z,60.28
2023-02-11T11:12:24.827Z,60.20
2023-02-11T11:15:29.036Z,60.25
2023-02-11T11:18:30.510Z,59.77
2023-02-11T11:21:41.295Z,60.35
2023-02-11T11:24:46.662Z,60.30
2023-02-11T11:27:54.322Z,60.36
2023-02-11T11:30:57.357Z,60.40
2023-02-11T11:34:02.056Z,60.48
2023-02-11T11:37:26.040Z,60.23
2023-02-11T11:40:32.464Z,60.36
2023-02-11T11:43:34.005Z,60.35
2023-02-11T11:46:40.656Z,60.31
2023-02-11T11:50:12.236Z,60.26
2023-02-11T11:53:20.973Z,60.26
2023-02-11T11:56:26.132Z,60.28
2023-02-11T11:59:28.463Z,60.34
2023-02-11T12:02:48.269Z,60.28
2023-02-11T12:06:19.196Z,60.24
2023-02-11T12:09:31.976Z,60.18
2023-02-11T12:13:00.550Z,60.21
2023-02-11T12:16:25.021Z,60.23
2023-02-11T12:19:38.554Z,60.08
2023-02-11T12:23:17.424Z,59.73
2023-02-11T12:26:26.387Z,59.32
2023-02-11T12:29:33.492Z,58.97
2023-02-11T12:32:50.310Z,58.76
2023-02-11T12:35:55.056Z,58.36
2023-02-11T12:39:08.428Z,54.70
2023-02-11T12:42:43.045Z,53.04
2023-02-11T12:46:05.986Z,53.57
2023-02-11T12:49:16.532Z,54.77
2023-02-11T12:52:23.519Z,55.40
2023-02-11T12:55:37.030Z,55.34
2023-02-11T12:58:45.511Z,55.47
2023-02-11T13:01:50.106Z,55.66
2023-02-11T13:04:55.754Z,55.77
2023-02-11T13:08:05.780Z,55.88
2023-02-11T13:11:14.805Z,55.97
2023-02-11T13:14:26.888Z,55.99
2023-02-11T13:17:41.100Z,56.02
2023-02-11T13:20:54.165Z,56.16
2023-02-11T13:24:02.762Z,56.20
2023-02-11T13:27:16.637Z,56.33
2023-02-11T13:30:40.824Z,56.52
2023-02-11T13:33:44.294Z,56.68
2023-02-11T13:36:54.896Z,56.72
2023-02-11T13:40:00.586Z,56.78
2023-02-11T13:43:04.954Z,56.89
2023-02-11T13:46:12.388Z,56.99
2023-02-11T13:49:41.517Z,56.93
2023-02-11T13:52:43.142Z,57.07
2023-02-11T13:55:51.233Z,57.21
2023-02-11T13:58:52.806Z,57.20
2023-02-11T14:02:20.715Z,57.29
2023-02-11T14:05:49.521Z,57.20
2023-02-11T14:09:09.381Z,57.39
2023-02-11T14:12:24.032Z,57.43
2023-02-11T14:15:27.430Z,57.77
2023-02-11T14:18:45.003Z,57.72
2023-02-11T14:21:46.955Z,57.62
2023-02-11T14:24:53.311Z,57.52
2023-02-11T14:28:15.195Z,57.61
2023-02-11T14:31:25.999Z,57.48
2023-02-11T14:35:08.367Z,57.59
2023-02-11T14:38:17.575Z,57.67
2023-02-11T14:41:26.693Z,57.62
2023-02-11T14:44:31.355Z,57.49
2023-02-11T14:47:52.589Z,57.59
2023-02-11T14:51:00.780Z,57.58
2023-02-11T14:54:27.411Z,57.57
2023-02-11T14:57:29.675Z,57.64
2023-02-11T15:00:31.196Z,57.68
2023-02-11T15:03:34.601Z,57.58
2023-02-11T15:06:39.273Z,57.60
2023-02-11T15:09:44.132Z,57.71
2023-02-11T15:12:49.926Z,57.65
2023-02-11T15:15:55.897Z,57.58
2023-02-11T15:19:04.035Z,57.65
2023-02-11T15:22:15.612Z,57.51
2023-02-11T15:25:19.439Z,57.55
2023-02-11T15:28:28.810Z,57.50
2023-02-11T15:31:32.527Z,57.64
2023-02-11T15:34:36.462Z,57.60
2023-02-11T15:37:39.346Z,57.64
2023-02-11T15:40:40.897Z,57.69
2023-02-11T15:43:43.718Z,57.52
2023-02-11T15:46:47.325Z,57.53
2023-02-11T15:49:49.279Z,57.46
2023-02-11T15:52:52.129Z,57.44
2023-02-11T15:56:08.541Z,56.62
2023-02-11T15:59:25.660Z,55.36
2023-02-11T16:02:34.770Z,55.43
2023-02-11T16:05:38.084Z,56.06
2023-02-11T16:08:41.504Z,56.22
2023-02-11T16:11:45.782Z,56.28
2023-02-11T16:14:47.246Z,56.35
2023-02-11T16:17:48.806Z,56.39
2023-02-11T16:20:51.030Z,56.42
2023-02-11T16:23:54.908Z,56.39
2023-02-11T16:27:02.077Z,56.42
2023-02-11T16:30:05.422Z,56.83
2023-02-11T16:33:10.820Z,56.51
2023-02-11T16:36:14.258Z,56.04
2023-02-11T16:39:17.184Z,55.50
2023-02-11T16:42:18.764Z,55.29
2023-02-11T16:45:20.648Z,55.60
2023-02-11T16:48:22.120Z,55.97
2023-02-11T16:51:23.870Z,54.82
2023-02-11T16:54:25.360Z,54.67
2023-02-11T16:57:29.856Z,55.01
2023-02-11T17:00:32.135Z,55.61
2023-02-11T17:03:37.548Z,55.86
2023-02-11T17:06:39.085Z,56.05
2023-02-11T17:09:40.630Z,56.04
2023-02-11T17:12:42.102Z,56.17
2023-02-11T17:15:43.723Z,56.25
2023-02-11T17:18:45.580Z,56.23
2023-02-11T17:21:49.884Z,56.45
2023-02-11T17:24:51.444Z,56.40
2023-02-11T17:27:53.696Z,56.46
2023-02-11T17:30:55.310Z,56.45
2023-02-11T17:33:56.789Z,56.49
2023-02-11T17:36:59.540Z,56.56
2023-02-11T17:40:01.073Z,56.68
2023-02-11T17:43:02.968Z,56.62
2023-02-11T17:46:08.743Z,56.58
2023-02-11T17:49:11.570Z,56.61
2023-02-11T17:52:13.141Z,56.55
2023-02-11T17:55:14.702Z,56.73
2023-02-11T17:58:16.636Z,56.74
2023-02-11T18:01:18.221Z,56.68
2023-02-11T18:04:19.987Z,56.80
2023-02-11T18:07:21.583Z,56.90
2023-02-11T18:10:23.189Z,56.94
2023-02-11T18:13:24.970Z,56.99
2023-02-11T18:16:28.865Z,57.13
2023-02-11T18:19:32.276Z,57.08
2023-02-11T18:22:39.052Z,57.29
2023-02-11T18:25:44.186Z,56.78
2023-02-11T18:28:46.303Z,56.82
2023-02-11T18:31:47.881Z,56.76
2023-02-11T18:34:49.371Z,56.79
2023-02-11T18:37:52.219Z,56.97
2023-02-11T18:40:57.509Z,57.21
2023-02-11T18:44:02.619Z,57.16
2023-02-11T18:47:04.339Z,57.26
2023-02-11T18:50:09.013Z,57.35
2023-02-11T18:53:12.235Z,57.38
2023-02-11T18:56:16.790Z,57.20
2023-02-11T18:59:18.273Z,57.32
2023-02-11T19:02:19.864Z,57.48
2023-02-11T19:05:21.638Z,57.46
2023-02-11T19:08:23.192Z,57.46
2023-02-11T19:11:44.907Z,57.66
2023-02-11T19:14:46.408Z,57.75
2023-02-11T19:17:48.098Z,57.69
2023-02-11T19:20:49.678Z,57.78
2023-02-11T19:23:51.163Z,57.58
2023-02-11T19:26:55.716Z,57.73
2023-02-11T19:29:57.241Z,57.82
2023-02-11T19:32:58.701Z,58.03
2023-02-11T19:36:07.704Z,57.99
2023-02-11T19:39:10.025Z,58.18
2023-02-11T19:42:12.228Z,58.16
2023-02-11T19:45:13.730Z,58.47
2023-02-11T19:48:15.206Z,58.39
2023-02-11T19:51:17.556Z,58.76
2023-02-11T19:54:20.253Z,58.83
2023-02-11T19:57:21.800Z,58.98
2023-02-11T20:00:23.379Z,59.16
2023-02-11T20:03:24.858Z,59.24
2023-02-11T20:06:30.242Z,59.26
2023-02-11T20:09:32.230Z,59.40
2023-02-11T20:12:33.756Z,59.61
2023-02-11T20:15:35.356Z,59.61
2023-02-11T20:18:37.212Z,59.75
2023-02-11T20:21:39.375Z,59.80
2023-02-11T20:24:40.937Z,59.90
2023-02-11T20:27:42.438Z,60.09
2023-02-11T20:30:43.948Z,60.06
2023-02-11T20:33:46.691Z,59.99
2023-02-11T20:36:51.808Z,59.92
2023-02-11T20:39:53.620Z,60.14
2023-02-11T20:42:56.591Z,59.83
2023-02-11T20:46:05.826Z,60.26
2023-02-11T20:49:08.630Z,60.22
2023-02-11T20:52:10.135Z,60.60
2023-02-11T20:55:11.931Z,60.25
2023-02-11T20:58:13.374Z,60.26
2023-02-11T21:01:24.658Z,60.21
2023-02-11T21:04:29.378Z,60.23
2023-02-11T21:07:31.339Z,60.47
2023-02-11T21:10:32.823Z,60.37
2023-02-11T21:13:38.347Z,60.27
2023-02-11T21:16:40.846Z,60.44
2023-02-11T21:19:43.259Z,60.39
2023-02-11T21:22:44.898Z,60.34
2023-02-11T21:25:46.578Z,60.37
2023-02-11T21:28:48.781Z,60.37
2023-02-11T21:31:51.320Z,60.36
2023-02-11T21:34:53.988Z,60.41
2023-02-11T21:37:55.464Z,60.39
2023-02-11T21:41:03.428Z,60.39
2023-02-11T21:44:05.110Z,60.57
2023-02-11T21:47:06.714Z,60.43
2023-02-11T21:50:08.476Z,60.27
2023-02-11T21:53:10.416Z,60.16
2023-02-11T21:56:17.269Z,60.14
2023-02-11T21:59:18.816Z,60.18
2023-02-11T22:02:20.305Z,60.34
2023-02-11T22:05:22.142Z,60.41
2023-02-11T22:08:23.612Z,60.40
2023-02-11T22:11:25.143Z,60.58
2023-02-11T22:14:26.785Z,60.54
2023-02-11T22:17:28.234Z,60.62
2023-02-11T22:20:29.773Z,60.57
2023-02-11T22:23:31.929Z,60.48
2023-02-11T22:26:33.416Z,60.34
2023-02-11T22:29:34.973Z,60.24
2023-02-11T22:32:36.573Z,60.20
2023-02-11T22:35:38.090Z,60.14
2023-02-11T22:38:39.712Z,60.21
2023-02-11T22:41:42.729Z,60.25
2023-02-11T22:44:44.486Z,60.10
2023-02-11T22:47:46.008Z,60.10
2023-02-11T22:50:47.622Z,59.97
2023-02-11T22:53:54.252Z,60.09
2023-02-11T22:56:55.765Z,60.41
2023-02-11T22:59:57.263Z,60.07
2023-02-11T23:02:58.940Z,60.21
2023-02-11T23:06:00.849Z,60.18
2023-02-11T23:09:07.424Z,60.15
2023-02-11T23:12:08.812Z,60.18
2023-02-11T23:15:10.611Z,60.21
2023-02-11T23:18:13.060Z,60.52
2023-02-11T23:21:23.283Z,60.39
2023-02-11T23:24:24.829Z,60.30
2023-02-11T23:27:26.344Z,60.32
2023-02-11T23:30:28.524Z,60.43
2023-02-11T23:33:30.103Z,60.24
2023-02-11T23:36:31.930Z,60.31
2023-02-11T23:39:33.446Z,60.18
2023-02-11T23:42:35.033Z,60.34
2023-02-11T23:45:36.681Z,60.46
2023-02-11T23:48:40.219Z,60.49
2023-02-11T23:51:41.707Z,60.63
2023-02-11T23:54:43.360Z,60.43
2023-02-11T23:57:44.861Z,60.45
